createdAt,value
2018-07-02T00:00:19.138Z,16.90
2018-07-02T00:02:48.851Z,16.90
2018-07-02T00:05:17.506Z,16.90
2018-07-02T00:07:46.022Z,16.80
2018-07-02T00:10:14.638Z,16.80
2018-07-02T00:12:43.323Z,16.70
2018-07-02T00:15:11.949Z,16.70
2018-07-02T00:17:40.734Z,16.70
2018-07-02T00:20:09.370Z,16.50
2018-07-02T00:22:37.959Z,16.60
2018-07-02T00:25:06.621Z,16.60
2018-07-02T00:27:35.244Z,16.60
2018-07-02T00:30:03.994Z,16.60
2018-07-02T00:32:32.679Z,16.60
2018-07-02T00:35:01.256Z,16.50
2018-07-02T00:37:29.941Z,16.40
2018-07-02T00:39:58.613Z,16.40
2018-07-02T00:42:32.631Z,16.40
2018-07-02T00:45:01.203Z,16.40
2018-07-02T00:47:29.783Z,16.40
2018-07-02T00:49:58.428Z,16.40
2018-07-02T00:52:27.038Z,16.30
2018-07-02T00:54:55.678Z,16.30
2018-07-02T01:00:16.407Z,16.30
2018-07-02T01:02:45.061Z,16.20
2018-07-02T01:05:13.882Z,16.30
2018-07-02T01:07:43.851Z,16.30
2018-07-02T01:10:12.570Z,16.30
2018-07-02T01:12:41.216Z,16.30
2018-07-02T01:15:10.955Z,16.30
2018-07-02T01:17:39.554Z,16.20
2018-07-02T01:20:08.197Z,16.20
2018-07-02T01:22:36.778Z,16.20
2018-07-02T01:25:05.522Z,16.10
2018-07-02T01:27:34.790Z,16.20
2018-07-02T01:30:04.621Z,16.20
2018-07-02T01:32:33.266Z,16.20
2018-07-02T01:35:02.003Z,16.20
2018-07-02T01:37:30.661Z,16.20
2018-07-02T01:39:59.293Z,16.20
2018-07-02T01:42:27.898Z,16.20
2018-07-02T01:44:58.570Z,16.20
2018-07-02T01:47:27.189Z,16.20
2018-07-02T01:49:55.801Z,16.30
2018-07-02T01:52:24.386Z,16.30
2018-07-02T01:54:53.056Z,16.40
2018-07-02T01:57:21.722Z,16.40
2018-07-02T01:59:50.314Z,16.40
2018-07-02T02:02:19.984Z,16.50
2018-07-02T02:04:48.631Z,16.50
2018-07-02T02:07:17.322Z,16.50
2018-07-02T02:09:45.966Z,16.50
2018-07-02T02:12:14.648Z,16.50
2018-07-02T02:14:43.276Z,16.50
2018-07-02T02:17:11.892Z,16.40
2018-07-02T02:19:40.545Z,16.40
2018-07-02T02:22:10.282Z,16.40
2018-07-02T02:24:38.923Z,16.40
2018-07-02T02:27:07.564Z,16.30
2018-07-02T02:29:36.156Z,16.30
2018-07-02T02:32:04.912Z,16.30
2018-07-02T02:34:33.529Z,16.30
2018-07-02T02:39:30.544Z,16.20
2018-07-02T02:41:59.254Z,16.10
2018-07-02T02:44:27.865Z,16.00
2018-07-02T02:46:56.477Z,16.00
2018-07-02T02:49:25.129Z,16.00
2018-07-02T02:54:22.033Z,15.90
2018-07-02T02:56:50.794Z,15.90
2018-07-02T02:59:19.367Z,15.90
2018-07-02T03:01:48.018Z,15.80
2018-07-02T03:04:16.682Z,15.70
2018-07-02T03:06:45.380Z,15.60
2018-07-02T03:09:14.068Z,15.60
2018-07-02T03:11:42.679Z,15.60
2018-07-02T03:14:11.354Z,15.60
2018-07-02T03:16:39.894Z,15.60
2018-07-02T03:19:08.523Z,15.50
2018-07-02T03:21:37.176Z,15.40
2018-07-02T03:24:05.879Z,15.50
2018-07-02T03:26:34.519Z,15.50
2018-07-02T03:29:03.259Z,15.40
2018-07-02T03:31:31.911Z,15.30
2018-07-02T03:34:00.518Z,15.30
2018-07-02T03:36:29.164Z,15.40
2018-07-02T03:38:57.882Z,15.40
2018-07-02T03:41:26.494Z,15.40
2018-07-02T03:43:55.259Z,15.40
2018-07-02T03:46:23.943Z,15.40
2018-07-02T03:48:52.623Z,15.50
2018-07-02T03:51:21.373Z,15.50
2018-07-02T03:53:50.163Z,15.50
2018-07-02T03:56:18.838Z,15.50
2018-07-02T03:58:47.476Z,15.60
2018-07-02T04:01:16.306Z,15.50
2018-07-02T04:03:44.865Z,15.50
2018-07-02T04:06:13.623Z,15.50
2018-07-02T04:08:42.556Z,15.60
2018-07-02T04:11:11.214Z,15.60
2018-07-02T04:13:39.874Z,15.60
2018-07-02T04:16:08.669Z,15.60
2018-07-02T04:18:37.760Z,15.60
2018-07-02T04:21:06.411Z,15.60
2018-07-02T04:23:35.110Z,15.60
2018-07-02T04:26:03.899Z,15.70
2018-07-02T04:28:32.521Z,15.70
2018-07-02T04:31:01.148Z,15.60
2018-07-02T04:33:29.811Z,15.70
2018-07-02T04:35:58.425Z,15.70
2018-07-02T04:38:27.002Z,15.60
2018-07-02T04:40:55.665Z,15.60
2018-07-02T04:43:24.279Z,15.60
2018-07-02T04:45:52.915Z,15.70
2018-07-02T04:48:21.573Z,15.70
2018-07-02T04:50:50.239Z,15.70
2018-07-02T04:53:18.981Z,15.70
2018-07-02T04:55:47.659Z,15.70
2018-07-02T04:58:16.302Z,15.80
2018-07-02T05:00:44.931Z,15.80
2018-07-02T05:03:13.461Z,16.00
2018-07-02T05:05:41.984Z,16.00
2018-07-02T05:08:10.639Z,16.00
2018-07-02T05:13:07.528Z,16.30
2018-07-02T05:15:36.154Z,16.30
2018-07-02T05:18:04.897Z,16.40
2018-07-02T05:20:33.519Z,16.50
2018-07-02T05:23:02.059Z,16.60
2018-07-02T05:25:30.686Z,16.70
2018-07-02T05:27:59.257Z,16.70
2018-07-02T05:30:27.837Z,16.70
2018-07-02T05:32:56.501Z,16.80
2018-07-02T05:35:25.063Z,16.90
2018-07-02T05:37:53.855Z,17.00
2018-07-02T05:40:22.466Z,17.00
2018-07-02T05:42:51.078Z,17.10
2018-07-02T05:45:19.678Z,17.10
2018-07-02T05:47:48.299Z,17.20
2018-07-02T05:50:16.900Z,17.20
2018-07-02T05:52:45.477Z,17.30
2018-07-02T05:55:14.114Z,17.50
2018-07-02T05:57:42.697Z,17.50
2018-07-02T06:00:11.689Z,17.50
2018-07-02T06:02:40.258Z,17.50
2018-07-02T06:05:08.862Z,17.70
2018-07-02T06:07:37.468Z,17.70
2018-07-02T06:10:06.241Z,17.80
2018-07-02T06:12:34.842Z,17.90
2018-07-02T06:15:03.518Z,18.00
2018-07-02T06:17:32.177Z,18.10
2018-07-02T06:20:00.803Z,18.20
2018-07-02T06:22:29.446Z,18.30
2018-07-02T06:24:58.067Z,18.40
2018-07-02T06:27:26.750Z,18.40
2018-07-02T06:29:55.390Z,18.40
2018-07-02T06:32:23.980Z,18.60
2018-07-02T06:34:52.527Z,18.70
2018-07-02T06:37:21.178Z,18.90
2018-07-02T06:39:49.797Z,19.00
2018-07-02T06:42:18.434Z,19.10
2018-07-02T06:44:47.053Z,19.10
2018-07-02T06:47:16.564Z,19.30
2018-07-02T06:49:45.100Z,19.50
2018-07-02T06:52:13.734Z,19.60
2018-07-02T06:54:42.460Z,19.70
2018-07-02T06:57:11.162Z,19.80
2018-07-02T06:59:39.772Z,19.90
2018-07-02T07:02:08.489Z,20.00
2018-07-02T07:04:37.091Z,20.10
2018-07-02T07:07:05.741Z,20.30
2018-07-02T07:09:34.300Z,20.40
2018-07-02T07:12:02.888Z,20.40
2018-07-02T07:14:31.620Z,20.50
2018-07-02T07:17:00.140Z,20.60
2018-07-02T07:19:28.916Z,20.80
2018-07-02T07:21:57.575Z,21.00
2018-07-02T07:24:26.205Z,21.00
2018-07-02T07:26:54.782Z,21.10
2018-07-02T07:29:23.398Z,21.30
2018-07-02T07:31:52.019Z,21.40
2018-07-02T07:34:20.659Z,21.40
2018-07-02T07:36:49.187Z,21.50
2018-07-02T07:39:17.807Z,21.60
2018-07-02T07:41:46.445Z,21.70
2018-07-02T07:44:15.121Z,21.80
2018-07-02T07:46:43.658Z,21.90
2018-07-02T07:49:12.297Z,21.90
2018-07-02T07:51:40.901Z,22.10
2018-07-02T07:54:10.094Z,22.20
2018-07-02T07:56:38.726Z,22.40
2018-07-02T07:59:07.462Z,22.50
2018-07-02T08:01:36.175Z,22.60
2018-07-02T08:04:04.817Z,22.80
2018-07-02T08:06:33.464Z,22.90
2018-07-02T08:09:02.159Z,23.00
2018-07-02T08:11:30.743Z,23.20
2018-07-02T08:13:59.346Z,23.40
2018-07-02T08:16:27.932Z,23.50
2018-07-02T08:18:56.709Z,23.50
2018-07-02T08:21:25.262Z,23.50
2018-07-02T08:23:53.961Z,23.60
2018-07-02T08:26:22.627Z,23.70
2018-07-02T08:28:51.259Z,23.80
2018-07-02T08:31:19.939Z,23.90
2018-07-02T08:33:48.516Z,24.00
2018-07-02T08:36:17.165Z,24.00
2018-07-02T08:38:45.906Z,24.00
2018-07-02T08:41:14.615Z,24.10
2018-07-02T08:43:43.319Z,24.30
2018-07-02T08:46:12.026Z,24.30
2018-07-02T08:48:40.558Z,24.40
2018-07-02T08:51:09.162Z,24.50
2018-07-02T08:53:37.680Z,24.70
2018-07-02T08:56:06.562Z,24.80
2018-07-02T08:58:35.327Z,24.90
2018-07-02T09:01:04.357Z,24.90
2018-07-02T09:03:33.067Z,24.80
2018-07-02T09:06:01.791Z,24.90
2018-07-02T09:08:30.456Z,25.10
2018-07-02T09:10:59.130Z,25.20
2018-07-02T09:13:27.742Z,25.20
2018-07-02T09:15:56.416Z,25.20
2018-07-02T09:18:25.111Z,25.40
2018-07-02T09:20:54.798Z,25.50
2018-07-02T09:23:23.409Z,25.40
2018-07-02T09:25:52.052Z,25.60
2018-07-02T09:28:20.685Z,25.70
2018-07-02T09:30:49.273Z,25.90
2018-07-02T09:33:17.883Z,26.00
2018-07-02T09:35:46.569Z,26.10
2018-07-02T09:38:15.193Z,26.10
2018-07-02T09:40:43.989Z,26.10
2018-07-02T09:43:12.429Z,26.30
2018-07-02T09:45:41.027Z,26.30
2018-07-02T09:48:09.674Z,26.40
2018-07-02T09:50:38.335Z,26.50
2018-07-02T09:53:06.996Z,26.60
2018-07-02T09:55:35.694Z,26.70
2018-07-02T09:58:04.348Z,26.80
2018-07-02T10:00:34.181Z,26.70
2018-07-02T10:03:02.855Z,26.70
2018-07-02T10:05:31.423Z,26.50
2018-07-02T10:08:00.070Z,26.50
2018-07-02T10:10:28.731Z,26.60
2018-07-02T10:12:57.343Z,26.70
2018-07-02T10:15:27.014Z,26.70
2018-07-02T10:17:55.675Z,26.80
2018-07-02T10:22:52.616Z,26.80
2018-07-02T10:25:21.267Z,27.10
2018-07-02T10:27:49.876Z,27.00
2018-07-02T10:30:18.507Z,27.00
2018-07-02T10:32:47.114Z,27.20
2018-07-02T10:35:15.802Z,27.40
2018-07-02T10:37:44.434Z,27.50
2018-07-02T10:40:13.024Z,27.60
2018-07-02T10:42:41.688Z,27.50
2018-07-02T10:45:10.324Z,27.70
2018-07-02T10:47:38.967Z,27.70
2018-07-02T10:50:07.597Z,27.60
2018-07-02T10:52:36.353Z,27.70
2018-07-02T10:55:05.125Z,27.70
2018-07-02T10:57:33.752Z,27.70
2018-07-02T11:00:02.398Z,27.60
2018-07-02T11:02:31.096Z,27.70
2018-07-02T11:04:59.679Z,27.70
2018-07-02T11:07:28.309Z,27.80
2018-07-02T11:09:56.945Z,27.90
2018-07-02T11:12:25.526Z,28.00
2018-07-02T11:14:54.139Z,28.30
2018-07-02T11:17:22.727Z,28.40
2018-07-02T11:19:51.321Z,28.40
2018-07-02T11:22:19.885Z,28.30
2018-07-02T11:24:48.474Z,28.50
2018-07-02T11:27:17.266Z,28.40
2018-07-02T11:29:45.889Z,28.40
2018-07-02T11:32:14.474Z,28.60
2018-07-02T11:34:43.057Z,28.80
2018-07-02T11:37:11.678Z,28.70
2018-07-02T11:39:40.272Z,28.90
2018-07-02T11:42:08.981Z,29.00
2018-07-02T11:44:37.690Z,29.10
2018-07-02T11:47:06.398Z,29.10
2018-07-02T11:49:34.979Z,29.00
2018-07-02T11:52:03.617Z,29.00
2018-07-02T11:54:32.182Z,29.10
2018-07-02T11:57:00.826Z,29.00
2018-07-02T11:59:29.426Z,29.00
2018-07-02T12:01:58.419Z,29.00
2018-07-02T12:04:27.055Z,28.90
2018-07-02T12:06:55.690Z,29.10
2018-07-02T12:09:24.225Z,29.20
2018-07-02T12:11:52.910Z,29.40
2018-07-02T12:14:21.543Z,29.40
2018-07-02T12:16:50.145Z,29.50
2018-07-02T12:21:47.015Z,29.60
2018-07-02T12:24:15.645Z,29.80
2018-07-02T12:26:44.299Z,30.00
2018-07-02T12:29:12.929Z,29.90
2018-07-02T12:31:41.519Z,29.80
2018-07-02T12:34:10.146Z,29.90
2018-07-02T12:36:38.797Z,29.80
2018-07-02T12:39:10.337Z,30.00
2018-07-02T12:41:39.327Z,29.90
2018-07-02T12:44:07.910Z,29.90
2018-07-02T12:46:36.597Z,29.90
2018-07-02T12:49:05.246Z,29.60
2018-07-02T12:51:33.895Z,29.60
2018-07-02T12:54:02.550Z,29.70
2018-07-02T12:56:31.090Z,29.80
2018-07-02T12:59:00.714Z,29.90
2018-07-02T13:01:29.322Z,29.90
2018-07-02T13:03:59.088Z,29.90
2018-07-02T13:06:27.754Z,30.10
2018-07-02T13:08:56.359Z,30.20
2018-07-02T13:11:25.215Z,30.20
2018-07-02T13:13:53.867Z,30.30
2018-07-02T13:16:23.649Z,30.30
2018-07-02T13:18:52.259Z,30.30
2018-07-02T13:21:21.027Z,30.40
2018-07-02T13:23:50.660Z,30.50
2018-07-02T13:26:19.245Z,30.70
2018-07-02T13:28:47.859Z,30.70
2018-07-02T13:31:16.463Z,30.70
2018-07-02T13:33:45.032Z,30.70
2018-07-02T13:36:15.735Z,30.80
2018-07-02T13:38:44.339Z,30.80
2018-07-02T13:41:13.999Z,30.80
2018-07-02T13:43:42.611Z,30.80
2018-07-02T13:46:11.285Z,30.60
2018-07-02T13:48:40.097Z,30.50
2018-07-02T13:51:09.002Z,30.60
2018-07-02T13:53:37.690Z,30.80
2018-07-02T13:56:06.667Z,30.70
2018-07-02T13:58:35.754Z,30.80
2018-07-02T14:01:04.417Z,30.80
2018-07-02T14:03:35.899Z,30.90
2018-07-02T14:06:04.610Z,31.00
2018-07-02T14:08:33.223Z,31.00
2018-07-02T14:11:01.900Z,31.10
2018-07-02T14:13:30.570Z,31.10
2018-07-02T14:15:59.213Z,31.30
2018-07-02T14:18:28.870Z,31.30
2018-07-02T14:20:57.400Z,31.40
2018-07-02T14:23:26.083Z,31.40
2018-07-02T14:25:54.623Z,31.40
2018-07-02T14:28:23.245Z,31.50
2018-07-02T14:30:51.883Z,31.50
2018-07-02T14:33:20.473Z,31.60
2018-07-02T14:35:49.155Z,31.70
2018-07-02T14:38:18.036Z,31.70
2018-07-02T14:40:46.645Z,31.60
2018-07-02T14:43:15.440Z,31.70
2018-07-02T14:45:44.003Z,31.70
2018-07-02T14:48:12.582Z,31.70
2018-07-02T14:50:41.183Z,31.70
2018-07-02T14:53:09.788Z,31.80
2018-07-02T14:55:39.342Z,31.60
2018-07-02T14:58:07.968Z,31.20
2018-07-02T15:00:36.776Z,31.00
2018-07-02T15:03:05.637Z,31.00
2018-07-02T15:05:34.331Z,31.10
2018-07-02T15:08:02.931Z,31.20
2018-07-02T15:10:31.542Z,31.40
2018-07-02T15:13:00.082Z,31.40
2018-07-02T15:15:28.778Z,31.60
2018-07-02T15:17:57.393Z,31.50
2018-07-02T15:20:26.018Z,31.60
2018-07-02T15:22:54.683Z,31.40
2018-07-02T15:25:23.407Z,31.40
2018-07-02T15:27:52.029Z,31.40
2018-07-02T15:30:22.726Z,31.50
2018-07-02T15:32:51.254Z,31.50
2018-07-02T15:35:19.874Z,31.60
2018-07-02T15:37:48.469Z,31.70
2018-07-02T15:40:17.148Z,31.60
2018-07-02T15:42:45.781Z,31.70
2018-07-02T15:45:14.397Z,31.90
2018-07-02T15:47:42.992Z,31.90
2018-07-02T15:50:11.644Z,32.00
2018-07-02T15:52:40.246Z,32.00
2018-07-02T15:55:08.882Z,32.20
2018-07-02T15:57:37.547Z,32.20
2018-07-02T16:00:06.554Z,31.90
2018-07-02T16:02:35.363Z,31.70
2018-07-02T16:05:04.294Z,31.80
2018-07-02T16:07:32.973Z,31.80
2018-07-02T16:10:01.619Z,32.00
2018-07-02T16:12:30.190Z,32.00
2018-07-02T16:14:58.711Z,32.10
2018-07-02T16:17:27.397Z,32.20
2018-07-02T16:19:56.033Z,32.30
2018-07-02T16:22:24.762Z,32.60
2018-07-02T16:24:53.446Z,33.30
2018-07-02T16:27:22.055Z,33.80
2018-07-02T16:29:50.616Z,34.20
2018-07-02T16:32:19.355Z,35.30
2018-07-02T16:34:48.033Z,36.10
2018-07-02T16:37:16.583Z,36.10
2018-07-02T16:39:45.211Z,36.90
2018-07-02T16:42:13.967Z,37.00
2018-07-02T16:44:42.639Z,36.90
2018-07-02T16:47:11.244Z,37.40
2018-07-02T16:49:39.807Z,37.80
2018-07-02T16:52:08.335Z,37.90
2018-07-02T16:54:37.021Z,38.20
2018-07-02T16:57:05.642Z,38.50
2018-07-02T16:59:34.298Z,38.90
2018-07-02T17:02:03.810Z,39.20
2018-07-02T17:04:32.505Z,39.60
2018-07-02T17:07:01.191Z,39.60
2018-07-02T17:09:29.841Z,39.40
2018-07-02T17:11:58.443Z,39.50
2018-07-02T17:14:27.311Z,38.20
2018-07-02T17:16:56.315Z,38.30
2018-07-02T17:19:25.409Z,38.10
2018-07-02T17:21:54.495Z,38.20
2018-07-02T17:24:23.624Z,38.30
2018-07-02T17:26:52.632Z,38.40
2018-07-02T17:29:21.623Z,38.30
2018-07-02T17:31:50.611Z,38.20
2018-07-02T17:34:19.583Z,38.30
2018-07-02T17:36:48.483Z,38.30
2018-07-02T17:39:17.441Z,38.50
2018-07-02T17:41:46.249Z,38.40
2018-07-02T17:44:15.321Z,38.70
2018-07-02T17:46:44.380Z,38.40
2018-07-02T17:49:13.310Z,37.70
2018-07-02T17:51:42.331Z,37.50
2018-07-02T17:54:11.468Z,37.30
2018-07-02T17:56:40.505Z,37.30
2018-07-02T17:59:09.421Z,37.20
2018-07-02T18:01:38.306Z,37.30
2018-07-02T18:04:07.272Z,37.40
2018-07-02T18:06:36.313Z,36.60
2018-07-02T18:09:08.780Z,36.30
2018-07-02T18:11:37.765Z,36.30
2018-07-02T18:14:06.418Z,36.00
2018-07-02T18:16:35.077Z,35.90
2018-07-02T18:19:03.696Z,35.50
2018-07-02T18:21:32.320Z,35.30
2018-07-02T18:24:01.069Z,34.90
2018-07-02T18:26:29.716Z,33.90
2018-07-02T18:28:58.317Z,33.20
2018-07-02T18:31:26.990Z,32.40
2018-07-02T18:33:55.624Z,31.40
2018-07-02T18:36:24.258Z,31.00
2018-07-02T18:38:52.866Z,30.40
2018-07-02T18:43:49.884Z,29.30
2018-07-02T18:46:18.703Z,28.80
2018-07-02T18:48:47.447Z,28.30
2018-07-02T18:51:16.132Z,27.80
2018-07-02T18:53:44.777Z,27.40
2018-07-02T18:56:13.374Z,26.90
2018-07-02T18:58:41.971Z,26.50
2018-07-02T19:01:11.574Z,26.20
2018-07-02T19:03:40.153Z,25.90
2018-07-02T19:06:08.873Z,25.70
2018-07-02T19:08:37.538Z,25.50
2018-07-02T19:11:06.337Z,25.40
2018-07-02T19:13:34.998Z,25.20
2018-07-02T19:16:03.711Z,25.00
2018-07-02T19:18:33.111Z,24.80
2018-07-02T19:21:01.907Z,24.60
2018-07-02T19:23:31.840Z,24.60
2018-07-02T19:26:00.607Z,24.50
2018-07-02T19:28:29.173Z,24.40
2018-07-02T19:30:57.837Z,24.40
2018-07-02T19:33:26.401Z,24.40
2018-07-02T19:35:54.990Z,24.30
2018-07-02T19:38:23.506Z,24.20
2018-07-02T19:40:52.161Z,24.20
2018-07-02T19:43:20.708Z,24.20
2018-07-02T19:45:49.327Z,24.10
2018-07-02T19:48:17.990Z,24.20
2018-07-02T19:50:46.677Z,24.10
2018-07-02T19:53:15.285Z,24.10
2018-07-02T19:55:43.883Z,24.00
2018-07-02T20:00:40.802Z,23.90
2018-07-02T20:03:09.472Z,23.90
2018-07-02T20:05:38.150Z,23.80
2018-07-02T20:08:06.750Z,23.70
2018-07-02T20:10:35.423Z,23.70
2018-07-02T20:13:04.012Z,23.80
2018-07-02T20:15:32.748Z,23.60
2018-07-02T20:18:01.461Z,23.40
2018-07-02T20:20:30.004Z,23.30
2018-07-02T20:22:58.619Z,23.20
2018-07-02T20:25:27.291Z,23.10
2018-07-02T20:27:55.873Z,23.00
2018-07-02T20:30:24.780Z,22.80
2018-07-02T20:32:53.303Z,22.80
2018-07-02T20:35:21.968Z,22.70
2018-07-02T20:37:50.566Z,22.60
2018-07-02T20:40:19.148Z,22.50
2018-07-02T20:42:47.826Z,22.30
2018-07-02T20:45:16.448Z,22.20
2018-07-02T20:47:45.081Z,22.00
2018-07-02T20:50:13.694Z,21.90
2018-07-02T20:52:42.280Z,21.80
2018-07-02T20:55:10.936Z,21.80
2018-07-02T20:57:39.614Z,21.60
2018-07-02T21:00:08.306Z,21.40
2018-07-02T21:02:36.944Z,21.30
2018-07-02T21:05:05.634Z,21.20
2018-07-02T21:07:34.251Z,21.10
2018-07-02T21:10:03.031Z,21.10
2018-07-02T21:12:31.890Z,20.90
2018-07-02T21:15:00.642Z,20.70
2018-07-02T21:17:29.307Z,20.60
2018-07-02T21:19:57.878Z,20.50
2018-07-02T21:22:26.483Z,20.30
2018-07-02T21:24:55.083Z,20.30
2018-07-02T21:27:23.780Z,20.30
2018-07-02T21:29:52.323Z,20.20
2018-07-02T21:32:20.945Z,20.20
2018-07-02T21:34:49.524Z,20.20
2018-07-02T21:37:18.104Z,20.10
2018-07-02T21:39:46.679Z,20.00
2018-07-02T21:42:15.323Z,19.80
2018-07-02T21:44:43.904Z,19.70
2018-07-02T21:49:40.827Z,19.60
2018-07-02T21:52:09.471Z,19.60
2018-07-02T21:54:38.131Z,19.60
2018-07-02T21:57:06.809Z,19.50
2018-07-02T21:59:35.419Z,19.50
2018-07-02T22:02:04.163Z,19.30
2018-07-02T22:04:32.845Z,19.30
2018-07-02T22:07:01.507Z,19.30
2018-07-02T22:09:30.063Z,19.10
2018-07-02T22:11:58.678Z,19.10
2018-07-02T22:14:27.310Z,19.10
2018-07-02T22:16:55.879Z,19.10
2018-07-02T22:19:24.538Z,19.10
2018-07-02T22:21:53.480Z,19.10
2018-07-02T22:24:22.191Z,19.10
2018-07-02T22:26:51.067Z,19.10
2018-07-02T22:29:19.807Z,19.10
2018-07-02T22:31:48.410Z,18.90
2018-07-02T22:34:17.719Z,18.80
2018-07-02T22:36:46.302Z,18.70
2018-07-02T22:41:44.339Z,18.50
2018-07-02T22:44:12.971Z,18.50
2018-07-02T22:46:41.642Z,18.40
2018-07-02T22:49:10.346Z,18.40
2018-07-02T22:51:38.970Z,18.50
2018-07-02T22:54:07.626Z,18.40
2018-07-02T22:56:36.267Z,18.30
2018-07-02T22:59:04.975Z,18.30
2018-07-02T23:01:33.683Z,18.40
2018-07-02T23:04:02.229Z,18.40
2018-07-02T23:06:34.039Z,18.40
2018-07-02T23:09:02.741Z,18.30
2018-07-02T23:11:31.338Z,18.30
2018-07-02T23:13:59.978Z,18.20
2018-07-02T23:18:56.882Z,18.20
2018-07-02T23:21:25.500Z,18.20
2018-07-02T23:23:54.041Z,18.10
2018-07-02T23:26:22.708Z,18.10
2018-07-02T23:28:51.563Z,18.10
2018-07-02T23:31:20.258Z,18.10
2018-07-02T23:33:48.883Z,18.10
2018-07-02T23:36:17.527Z,18.00
2018-07-02T23:38:46.119Z,18.00
2018-07-02T23:41:14.655Z,17.90
2018-07-02T23:43:43.243Z,17.80
2018-07-02T23:46:11.795Z,17.70
2018-07-02T23:48:40.393Z,17.70
2018-07-02T23:51:09.103Z,17.70
2018-07-02T23:53:37.712Z,17.50
2018-07-02T23:56:07.314Z,17.40
2018-07-02T23:58:36.219Z,17.40
